createdAt,value
2022-10-18T00:02:07.885Z,27.70
2022-10-18T00:04:36.394Z,28.70
2022-10-18T00:07:05.080Z,28.42
2022-10-18T00:09:33.764Z,27.88
2022-10-18T00:12:02.302Z,29.23
2022-10-18T00:14:30.658Z,28.88
2022-10-18T00:16:59.070Z,28.92
2022-10-18T00:19:29.252Z,28.77
2022-10-18T00:21:58.280Z,28.73
2022-10-18T00:24:26.646Z,28.88
2022-10-18T00:26:55.135Z,28.80
2022-10-18T00:29:23.450Z,29.45
2022-10-18T06:12:52.779Z,41.63
2022-10-18T06:15:54.174Z,38.67
2022-10-18T06:18:36.742Z,35.80
2022-10-18T06:21:11.780Z,34.05
2022-10-18T06:23:43.646Z,34.33
2022-10-18T06:26:17.188Z,33.63
2022-10-18T06:29:12.571Z,33.47
2022-10-18T06:32:06.522Z,32.50
2022-10-18T06:34:40.775Z,32.58
2022-10-18T06:37:14.148Z,34.17
2022-10-18T06:39:45.093Z,32.95
2022-10-18T06:43:00.211Z,33.53
2022-10-18T06:45:30.790Z,33.08
2022-10-18T06:48:01.606Z,34.65
2022-10-18T06:50:35.422Z,33.63
2022-10-18T06:53:44.163Z,33.47
2022-10-18T06:56:23.684Z,32.85
2022-10-18T07:01:35.070Z,33.53
2022-10-18T07:04:44.864Z,31.42
2022-10-18T07:07:47.002Z,31.92
2022-10-18T07:10:56.104Z,33.35
2022-10-18T07:13:33.406Z,31.27
2022-10-18T07:16:17.322Z,32.40
2022-10-18T07:18:51.968Z,33.03
2022-10-18T07:21:31.948Z,33.67
2022-10-18T07:24:01.636Z,31.75
2022-10-18T07:26:50.621Z,30.90
2022-10-18T07:30:41.037Z,30.75
2022-10-18T07:33:48.137Z,31.63
2022-10-18T07:40:44.867Z,29.52
2022-10-18T07:43:57.284Z,30.67
2022-10-18T07:47:03.578Z,29.02
2022-10-18T07:49:48.731Z,30.48
2022-10-18T08:18:35.768Z,28.65
2022-10-18T08:21:09.165Z,28.83
2022-10-18T08:23:39.870Z,28.77
2022-10-18T08:26:12.126Z,28.92
2022-10-18T10:26:42.180Z,25.63
2022-10-18T10:29:49.831Z,23.65
2022-10-18T10:32:32.526Z,22.23
2022-10-18T10:38:55.847Z,21.15
2022-10-18T10:41:26.056Z,25.30
2022-10-18T10:43:55.178Z,30.35
2022-10-18T10:46:36.321Z,30.95
2022-10-18T10:49:39.270Z,27.10
2022-10-18T10:52:26.202Z,24.63
2022-10-18T10:55:35.923Z,22.90
2022-10-18T10:58:50.599Z,23.67
2022-10-18T11:05:01.443Z,22.88
2022-10-18T11:11:34.157Z,24.83
2022-10-18T11:16:08.558Z,22.27
2022-10-18T11:19:12.077Z,23.55
2022-10-18T11:22:13.618Z,33.03
2022-10-18T11:29:25.605Z,11.18
2022-10-18T11:33:11.359Z,14.32
2022-10-18T11:44:02.345Z,10.48
2022-10-18T11:55:56.072Z,17.73
2022-10-18T11:59:42.385Z,14.00
2022-10-18T12:02:56.455Z,11.85
2022-10-18T12:05:42.709Z,14.52
2022-10-18T12:08:22.761Z,15.98
2022-10-18T12:18:10.707Z,13.70
2022-10-18T12:21:03.398Z,17.38
2022-10-18T12:30:52.074Z,17.17
2022-10-18T13:02:30.682Z,19.13
2022-10-18T13:06:31.272Z,18.23
2022-10-18T13:13:41.172Z,18.75
2022-10-18T13:17:05.178Z,18.83
2022-10-18T13:20:24.634Z,20.70
2022-10-18T13:23:11.299Z,20.30
2022-10-18T13:26:18.181Z,20.73
2022-10-18T13:29:16.455Z,20.65
2022-10-18T13:32:41.634Z,20.33
2022-10-18T13:35:48.035Z,20.27
2022-10-18T13:38:36.280Z,21.92
2022-10-18T13:41:06.401Z,21.92
2022-10-18T13:43:52.920Z,32.95
2022-10-18T13:46:34.931Z,25.48
2022-10-18T13:49:40.916Z,26.98
2022-10-18T13:52:50.385Z,26.80
2022-10-18T13:55:31.272Z,28.40
2022-10-18T13:58:11.899Z,25.83
2022-10-18T14:00:51.305Z,26.98
2022-10-18T14:03:55.125Z,35.40
2022-10-18T14:06:22.819Z,38.20
2022-10-18T14:12:31.087Z,30.90
2022-10-18T14:15:21.314Z,33.17
2022-10-18T14:17:58.120Z,70.18
2022-10-18T14:20:55.095Z,48.53
2022-10-18T14:23:29.989Z,25.42
2022-10-18T14:26:16.311Z,24.25
2022-10-18T14:29:06.595Z,23.63
2022-10-18T14:31:41.076Z,22.67
2022-10-18T15:44:50.879Z,14.00
2022-10-18T15:47:21.843Z,20.65
2022-10-18T15:50:31.908Z,20.80
2022-10-18T15:58:02.745Z,17.95
2022-10-18T16:00:36.174Z,16.92
2022-10-18T16:03:42.728Z,17.83
2022-10-18T16:06:28.706Z,19.88
2022-10-18T16:08:57.678Z,16.60
2022-10-18T16:11:45.667Z,17.83
2022-10-18T16:14:15.586Z,16.55
2022-10-18T16:17:16.585Z,17.63
2022-10-18T16:19:47.521Z,17.05
2022-10-18T16:22:41.484Z,15.48
2022-10-18T16:25:37.282Z,29.90
2022-10-18T16:28:31.940Z,21.50
2022-10-18T16:31:03.981Z,17.30
2022-10-18T16:37:30.452Z,17.90
2022-10-18T16:39:59.320Z,17.77
2022-10-18T16:42:31.504Z,17.25
2022-10-18T16:45:10.364Z,18.00
2022-10-18T16:47:39.051Z,17.77
2022-10-18T16:50:46.040Z,16.67
2022-10-18T16:53:16.806Z,17.48
2022-10-18T16:55:45.357Z,17.90
2022-10-18T16:58:18.003Z,18.48
2022-10-18T17:00:47.333Z,23.27
2022-10-18T17:03:16.322Z,23.63
2022-10-18T17:05:44.633Z,19.63
2022-10-18T17:08:19.914Z,25.45
2022-10-18T17:10:49.986Z,20.27
2022-10-18T17:13:19.506Z,19.05
2022-10-18T17:15:48.589Z,21.25
2022-10-18T17:18:27.695Z,19.50
2022-10-18T17:21:07.995Z,19.00
2022-10-18T17:23:39.586Z,20.15
2022-10-18T17:26:27.715Z,22.33
2022-10-18T17:29:08.433Z,24.85
2022-10-18T17:31:37.073Z,22.98
2022-10-18T17:34:05.906Z,26.67
2022-10-18T17:36:36.113Z,19.73
2022-10-18T17:39:05.300Z,23.90
2022-10-18T17:41:42.931Z,18.50
2022-10-18T17:44:11.524Z,22.48
2022-10-18T17:46:40.210Z,21.13
2022-10-18T17:52:32.002Z,17.17
2022-10-18T17:55:04.259Z,16.50
2022-10-18T17:57:33.333Z,16.20
2022-10-18T18:04:57.873Z,18.05
2022-10-18T18:12:49.250Z,17.83
2022-10-18T18:34:18.635Z,20.45
2022-10-18T18:50:58.144Z,19.63
2022-10-18T18:58:48.818Z,22.05
2022-10-18T19:02:00.947Z,22.75
2022-10-18T19:08:35.728Z,23.42
2022-10-18T19:11:22.451Z,24.95
2022-10-18T19:13:55.802Z,27.98
2022-10-18T19:17:28.549Z,28.40
2022-10-18T19:34:43.424Z,23.98
2022-10-18T19:37:18.361Z,21.63
2022-10-18T19:46:23.772Z,20.88
2022-10-18T20:07:45.292Z,21.63
2022-10-18T20:10:41.958Z,21.08
2022-10-18T20:13:26.311Z,20.40
2022-10-18T20:16:30.066Z,18.83
2022-10-18T20:22:10.868Z,21.17
2022-10-18T20:25:23.140Z,28.10
2022-10-18T20:28:29.355Z,31.40
2022-10-18T20:31:44.858Z,33.63
2022-10-18T20:34:48.515Z,27.95
2022-10-18T20:45:23.246Z,15.57
2022-10-18T20:47:55.344Z,16.17
2022-10-18T20:50:24.138Z,15.95
2022-10-18T20:52:53.956Z,15.88
2022-10-18T20:55:22.790Z,14.75
2022-10-18T20:57:54.942Z,14.57
2022-10-18T21:00:23.208Z,13.18
2022-10-18T21:02:51.719Z,12.18
2022-10-18T21:05:20.163Z,12.70
2022-10-18T21:07:48.620Z,11.82
2022-10-18T21:10:17.255Z,10.65
2022-10-18T21:12:48.262Z,13.57
2022-10-18T21:15:16.877Z,10.27
2022-10-18T21:17:51.650Z,9.45
2022-10-18T21:20:20.303Z,9.65
2022-10-18T21:22:48.869Z,9.80
2022-10-18T21:25:17.389Z,12.80
2022-10-18T21:27:46.105Z,16.05
2022-10-18T21:30:15.101Z,14.73
2022-10-18T21:32:49.957Z,11.05
2022-10-18T21:35:18.373Z,11.88
2022-10-18T21:38:12.296Z,11.77
2022-10-18T21:40:44.917Z,11.60
2022-10-18T21:43:14.533Z,12.27
2022-10-18T21:45:42.912Z,13.13
2022-10-18T21:48:11.434Z,11.45
2022-10-18T21:50:40.040Z,12.75
2022-10-18T21:53:09.294Z,12.02
2022-10-18T21:55:38.143Z,11.55
2022-10-18T21:58:09.806Z,11.70
2022-10-18T22:00:39.484Z,11.10
2022-10-18T22:03:12.912Z,10.80
2022-10-18T22:05:41.430Z,11.50
2022-10-18T22:08:10.180Z,10.65
2022-10-18T22:10:38.515Z,11.68
2022-10-18T22:13:07.107Z,10.45
2022-10-18T22:18:04.217Z,10.02
2022-10-18T22:20:32.621Z,11.00
2022-10-18T22:23:01.235Z,10.68
2022-10-18T22:25:29.655Z,10.75
2022-10-18T22:27:58.223Z,9.80
2022-10-18T22:30:26.544Z,10.23
2022-10-18T22:32:55.620Z,10.07
2022-10-18T22:35:24.110Z,9.45
2022-10-18T22:37:54.562Z,9.50
2022-10-18T22:40:22.859Z,9.00
2022-10-18T22:42:54.613Z,9.50
2022-10-18T22:45:22.923Z,9.05
2022-10-18T22:47:51.545Z,8.32
2022-10-18T22:50:19.985Z,8.63
2022-10-18T22:52:51.512Z,8.80
2022-10-18T22:55:22.419Z,9.20
2022-10-18T22:57:51.117Z,8.30
2022-10-18T23:00:19.735Z,8.52
2022-10-18T23:02:50.036Z,8.27
2022-10-18T23:05:18.671Z,7.90
2022-10-18T23:07:50.291Z,7.88
2022-10-18T23:10:18.704Z,7.82
2022-10-18T23:12:47.365Z,7.38
2022-10-18T23:15:16.180Z,7.30
2022-10-18T23:17:44.949Z,6.90
2022-10-18T23:20:13.278Z,7.45
2022-10-18T23:22:41.918Z,7.60
2022-10-18T23:25:10.317Z,7.07
2022-10-18T23:27:39.318Z,7.93
2022-10-18T23:30:08.437Z,7.18
2022-10-18T23:32:40.465Z,6.68
2022-10-18T23:35:09.207Z,7.78
2022-10-18T23:37:39.026Z,7.90
2022-10-18T23:40:08.337Z,7.70
2022-10-18T23:42:36.900Z,7.18
2022-10-18T23:45:06.154Z,7.32
2022-10-18T23:47:34.998Z,7.07
2022-10-18T23:50:04.056Z,7.47
2022-10-18T23:52:32.901Z,7.63
2022-10-18T23:55:01.214Z,7.80
2022-10-18T23:57:29.808Z,7.35
2022-10-18T23:59:58.159Z,6.72
